createdAt,value
2024-01-22T00:02:23.820Z,6.45
2024-01-22T00:04:50.634Z,6.07
2024-01-22T00:07:17.252Z,2.80
2024-01-22T00:09:43.963Z,5.25
2024-01-22T00:12:11.155Z,6.38
2024-01-22T00:14:38.525Z,7.03
2024-01-22T00:17:05.442Z,4.25
2024-01-22T00:19:35.275Z,4.45
2024-01-22T00:22:02.182Z,4.03
2024-01-22T00:24:28.853Z,3.92
2024-01-22T00:26:55.526Z,5.50
2024-01-22T00:29:22.198Z,5.38
2024-01-22T00:31:48.989Z,3.90
2024-01-22T00:34:15.785Z,3.53
2024-01-22T00:36:42.675Z,3.90
2024-01-22T00:39:09.375Z,5.20
2024-01-22T00:41:36.179Z,7.05
2024-01-22T00:44:03.015Z,2.88
2024-01-22T00:46:30.187Z,6.07
2024-01-22T00:48:57.481Z,6.82
2024-01-22T00:51:24.747Z,2.63
2024-01-22T00:53:51.541Z,5.47
2024-01-22T00:56:18.401Z,6.82
2024-01-22T00:58:45.191Z,3.65
2024-01-22T01:01:12.234Z,5.80
2024-01-22T01:03:39.083Z,6.95
2024-01-22T01:06:06.288Z,4.18
2024-01-22T01:08:32.938Z,5.07
2024-01-22T01:11:03.084Z,3.05
2024-01-22T01:13:29.745Z,5.25
2024-01-22T01:15:56.599Z,4.28
2024-01-22T01:18:23.356Z,3.58
2024-01-22T01:20:50.211Z,5.40
2024-01-22T01:23:16.996Z,5.32
2024-01-22T01:25:43.873Z,6.90
2024-01-22T01:28:10.782Z,6.85
2024-01-22T01:30:37.656Z,5.75
2024-01-22T01:33:04.580Z,4.72
2024-01-22T01:35:31.214Z,8.65
2024-01-22T01:37:57.938Z,6.55
2024-01-22T01:40:25.410Z,7.00
2024-01-22T01:42:52.605Z,5.05
2024-01-22T01:45:19.445Z,5.80
2024-01-22T01:47:52.100Z,8.27
2024-01-22T01:50:19.262Z,5.05
2024-01-22T01:52:46.635Z,3.90
2024-01-22T01:55:13.921Z,4.22
2024-01-22T01:57:42.677Z,3.42
2024-01-22T02:00:14.082Z,4.07
2024-01-22T02:02:42.207Z,9.32
2024-01-22T02:05:10.002Z,6.38
2024-01-22T02:07:38.083Z,7.20
2024-01-22T02:10:05.266Z,4.00
2024-01-22T02:12:31.889Z,5.30
2024-01-22T02:14:58.640Z,3.47
2024-01-22T02:17:25.379Z,8.02
2024-01-22T02:19:52.480Z,5.18
2024-01-22T02:22:19.188Z,2.80
2024-01-22T02:24:46.004Z,5.60
2024-01-22T02:27:12.807Z,4.75
2024-01-22T02:29:39.607Z,2.13
2024-01-22T02:32:06.881Z,3.78
2024-01-22T02:34:33.781Z,4.60
2024-01-22T02:37:03.267Z,3.40
2024-01-22T02:39:31.040Z,4.53
2024-01-22T02:41:57.901Z,2.60
2024-01-22T02:44:24.607Z,2.08
2024-01-22T02:46:51.440Z,5.18
2024-01-22T02:49:19.246Z,3.05
2024-01-22T02:51:45.982Z,1.27
2024-01-22T02:54:15.917Z,5.63
2024-01-22T02:56:42.713Z,2.63
2024-01-22T02:59:09.501Z,1.70
2024-01-22T03:01:36.361Z,1.00
2024-01-22T03:04:03.255Z,2.70
2024-01-22T03:06:30.346Z,3.92
2024-01-22T03:08:57.125Z,2.15
2024-01-22T03:11:24.383Z,3.83
2024-01-22T03:13:51.003Z,3.20
2024-01-22T03:16:17.801Z,1.65
2024-01-22T03:18:44.684Z,3.85
2024-01-22T03:21:11.919Z,2.17
2024-01-22T03:23:39.020Z,0.93
2024-01-22T03:26:05.784Z,1.42
2024-01-22T03:28:32.599Z,1.45
2024-01-22T03:31:14.599Z,0.88
2024-01-22T03:33:41.368Z,6.38
2024-01-22T03:36:08.349Z,1.45
2024-01-22T03:38:34.964Z,2.72
2024-01-22T03:41:02.006Z,1.58
2024-01-22T03:43:28.721Z,1.02
2024-01-22T03:45:57.921Z,1.45
2024-01-22T03:48:24.804Z,0.73
2024-01-22T03:50:54.735Z,0.55
2024-01-22T03:53:22.003Z,1.58
2024-01-22T03:55:48.809Z,2.60
2024-01-22T03:58:15.550Z,1.42
2024-01-22T04:00:42.295Z,2.03
2024-01-22T04:03:09.867Z,1.10
2024-01-22T04:05:36.589Z,2.38
2024-01-22T04:08:03.413Z,1.42
2024-01-22T04:10:30.226Z,1.13
2024-01-22T04:12:57.204Z,0.68
2024-01-22T04:15:24.626Z,1.13
2024-01-22T04:17:51.630Z,0.93
2024-01-22T04:20:18.678Z,1.83
2024-01-22T04:22:45.430Z,1.23
2024-01-22T04:25:12.798Z,0.60
2024-01-22T04:27:39.435Z,0.98
2024-01-22T04:30:07.209Z,1.00
2024-01-22T04:32:34.045Z,1.60
2024-01-22T04:35:02.861Z,0.95
2024-01-22T04:37:29.698Z,0.77
2024-01-22T04:39:58.209Z,0.52
2024-01-22T04:42:25.038Z,0.40
2024-01-22T04:44:51.764Z,0.63
2024-01-22T04:47:20.003Z,3.80
2024-01-22T04:52:14.126Z,0.90
2024-01-22T04:54:41.002Z,1.10
2024-01-22T04:57:08.385Z,1.17
2024-01-22T04:59:35.251Z,1.02
2024-01-22T05:02:02.032Z,0.20
2024-01-22T05:04:28.845Z,0.47
2024-01-22T05:06:55.677Z,0.77
2024-01-22T05:09:22.445Z,1.45
2024-01-22T05:11:50.241Z,3.20
2024-01-22T05:14:17.110Z,1.30
2024-01-22T05:16:43.872Z,2.42
2024-01-22T05:19:10.882Z,1.17
2024-01-22T05:21:37.659Z,0.85
2024-01-22T05:24:04.606Z,1.60
2024-01-22T05:26:31.466Z,0.90
2024-01-22T05:28:58.823Z,0.98
2024-01-22T05:31:25.618Z,2.78
2024-01-22T05:33:52.347Z,1.75
2024-01-22T05:36:19.307Z,0.90
2024-01-22T05:38:46.097Z,3.40
2024-01-22T05:41:13.335Z,1.17
2024-01-22T05:43:40.106Z,2.42
2024-01-22T05:46:08.037Z,0.63
2024-01-22T05:48:35.149Z,1.90
2024-01-22T05:51:02.642Z,0.73
2024-01-22T05:53:29.688Z,3.42
2024-01-22T05:55:56.407Z,1.70
2024-01-22T05:58:23.939Z,2.83
2024-01-22T06:00:50.940Z,5.70
2024-01-22T06:03:17.700Z,3.33
2024-01-22T06:05:58.902Z,5.57
2024-01-22T06:08:33.843Z,2.75
2024-01-22T06:11:06.114Z,8.93
2024-01-22T06:13:53.132Z,12.32
2024-01-22T06:16:27.730Z,7.55
2024-01-22T06:18:54.590Z,5.95
2024-01-22T06:21:27.426Z,7.22
2024-01-22T06:24:01.834Z,7.30
2024-01-22T06:26:31.754Z,14.05
2024-01-22T06:29:00.074Z,10.57
2024-01-22T06:31:27.022Z,11.30
2024-01-22T06:33:53.849Z,15.02
2024-01-22T06:36:20.818Z,14.10
2024-01-22T06:38:47.651Z,5.43
2024-01-22T06:41:16.173Z,14.77
2024-01-22T06:43:42.922Z,11.38
2024-01-22T06:46:10.511Z,14.70
2024-01-22T06:48:37.493Z,14.70
2024-01-22T06:51:04.548Z,12.82
2024-01-22T06:53:31.324Z,27.63
2024-01-22T06:55:58.335Z,16.02
2024-01-22T06:58:25.081Z,21.35
2024-01-22T07:00:52.932Z,15.00
2024-01-22T07:03:22.296Z,5.78
2024-01-22T07:05:52.684Z,25.25
2024-01-22T07:08:20.161Z,21.85
2024-01-22T07:10:47.299Z,25.50
2024-01-22T07:13:15.005Z,12.05
2024-01-22T07:18:55.061Z,16.83
2024-01-22T07:21:25.088Z,26.20
2024-01-22T07:23:51.883Z,16.48
2024-01-22T07:26:18.772Z,22.10
2024-01-22T07:28:45.618Z,26.20
2024-01-22T07:31:13.233Z,22.75
2024-01-22T07:33:40.190Z,24.55
2024-01-22T07:36:07.503Z,23.95
2024-01-22T07:38:34.713Z,19.02
2024-01-22T07:43:52.972Z,21.23
2024-01-22T07:46:20.782Z,30.30
2024-01-22T07:48:48.132Z,29.83
2024-01-22T07:51:18.960Z,23.35
2024-01-22T07:53:47.231Z,26.33
2024-01-22T07:56:15.383Z,31.55
2024-01-22T07:58:43.462Z,23.42
2024-01-22T08:01:11.064Z,30.70
2024-01-22T08:03:39.698Z,28.65
2024-01-22T08:06:08.253Z,21.13
2024-01-22T08:08:35.583Z,36.92
2024-01-22T08:11:04.111Z,30.65
2024-01-22T08:13:31.374Z,37.47
2024-01-22T08:15:58.779Z,26.38
2024-01-22T08:18:26.192Z,23.52
2024-01-22T08:20:54.572Z,39.28
2024-01-22T08:23:21.546Z,34.70
2024-01-22T08:25:48.187Z,29.02
2024-01-22T08:28:14.892Z,24.60
2024-01-22T08:30:41.907Z,25.50
2024-01-22T08:33:08.851Z,35.22
2024-01-22T08:35:36.296Z,33.88
2024-01-22T08:38:03.790Z,26.52
2024-01-22T08:40:34.907Z,35.13
2024-01-22T08:43:02.385Z,32.55
2024-01-22T08:45:38.186Z,27.70
2024-01-22T08:48:07.175Z,22.95
2024-01-22T08:51:22.025Z,26.35
2024-01-22T08:53:49.075Z,30.27
2024-01-22T08:56:22.304Z,25.60
2024-01-22T08:58:49.113Z,26.13
2024-01-22T09:01:22.452Z,32.03
2024-01-22T09:03:49.592Z,30.67
2024-01-22T09:06:23.612Z,25.05
2024-01-22T09:08:51.323Z,31.17
2024-01-22T09:11:21.112Z,34.95
2024-01-22T09:13:48.360Z,36.28
2024-01-22T09:16:19.111Z,33.53
2024-01-22T09:18:46.751Z,37.58
2024-01-22T09:21:14.216Z,23.63
2024-01-22T09:23:41.265Z,23.88
2024-01-22T09:26:09.727Z,20.77
2024-01-22T09:28:37.268Z,19.90
2024-01-22T09:31:05.002Z,26.33
2024-01-22T09:33:32.040Z,29.58
2024-01-22T09:36:00.052Z,22.85
2024-01-22T09:38:27.709Z,16.13
2024-01-22T09:40:54.890Z,25.45
2024-01-22T09:43:21.948Z,30.58
2024-01-22T09:45:51.055Z,22.15
2024-01-22T09:48:18.437Z,20.83
2024-01-22T09:50:53.275Z,25.83
2024-01-22T09:53:22.726Z,27.45
2024-01-22T09:55:54.210Z,28.35
2024-01-22T09:58:28.996Z,22.33
2024-01-22T10:01:05.014Z,21.33
2024-01-22T10:03:35.318Z,20.50
2024-01-22T10:06:04.498Z,20.45
2024-01-22T10:08:31.471Z,26.63
2024-01-22T10:11:02.761Z,23.90
2024-01-22T10:13:29.846Z,17.73
2024-01-22T10:16:12.064Z,19.38
2024-01-22T10:18:40.345Z,14.80
2024-01-22T10:21:23.649Z,26.45
2024-01-22T10:24:17.584Z,24.30
2024-01-22T10:26:52.915Z,23.50
2024-01-22T10:29:24.192Z,14.60
2024-01-22T10:31:59.377Z,23.95
2024-01-22T10:34:31.709Z,20.38
2024-01-22T10:37:10.202Z,25.08
2024-01-22T10:39:42.598Z,18.88
2024-01-22T10:42:19.919Z,17.60
2024-01-22T10:44:48.157Z,12.57
2024-01-22T10:47:17.415Z,23.88
2024-01-22T10:49:48.310Z,20.23
2024-01-22T10:52:19.044Z,18.17
2024-01-22T10:54:46.390Z,19.15
2024-01-22T10:57:25.571Z,15.90
2024-01-22T11:00:00.205Z,19.33
2024-01-22T11:02:34.054Z,16.38
2024-01-22T11:05:08.202Z,17.65
2024-01-22T11:07:40.380Z,20.02
2024-01-22T11:10:11.709Z,17.08
2024-01-22T11:12:51.311Z,28.52
2024-01-22T11:15:18.253Z,25.17
2024-01-22T11:17:45.475Z,18.85
2024-01-22T11:20:16.333Z,18.85
2024-01-22T11:22:44.267Z,22.73
2024-01-22T11:25:11.726Z,17.35
2024-01-22T11:27:42.722Z,15.75
2024-01-22T11:30:22.183Z,18.77
2024-01-22T11:32:50.381Z,12.55
2024-01-22T11:35:50.796Z,16.35
2024-01-22T11:38:42.856Z,23.55
2024-01-22T11:41:10.852Z,20.98
2024-01-22T11:43:38.539Z,17.25
2024-01-22T11:46:29.177Z,14.25
2024-01-22T11:48:56.472Z,19.85
2024-01-22T11:51:29.131Z,14.07
2024-01-22T11:53:57.933Z,17.55
2024-01-22T11:56:26.041Z,16.02
2024-01-22T12:01:31.306Z,17.50
2024-01-22T12:04:17.570Z,21.58
2024-01-22T12:06:50.513Z,19.95
2024-01-22T12:09:17.580Z,24.20
2024-01-22T12:11:53.050Z,14.05
2024-01-22T12:14:20.306Z,14.70
2024-01-22T12:16:47.819Z,14.70
2024-01-22T12:19:16.135Z,13.43
2024-01-22T12:21:44.969Z,15.57
2024-01-22T12:24:15.997Z,17.63
2024-01-22T12:26:44.063Z,14.50
2024-01-22T12:29:21.853Z,16.90
2024-01-22T12:31:49.490Z,13.65
2024-01-22T12:34:18.646Z,19.77
2024-01-22T12:36:47.247Z,4.68
2024-01-22T12:39:20.930Z,11.63
2024-01-22T12:41:48.271Z,15.88
2024-01-22T12:44:15.172Z,13.65
2024-01-22T12:46:42.900Z,11.80
2024-01-22T12:49:10.251Z,12.85
2024-01-22T12:51:38.180Z,12.52
2024-01-22T12:54:08.191Z,9.65
2024-01-22T12:56:35.619Z,17.65
2024-01-22T12:59:02.636Z,15.43
2024-01-22T13:01:31.959Z,15.35
2024-01-22T13:04:00.777Z,23.88
2024-01-22T13:06:28.266Z,19.95
2024-01-22T13:08:55.343Z,11.75
2024-01-22T13:11:22.796Z,23.85
2024-01-22T13:13:49.701Z,19.20
2024-01-22T13:16:19.599Z,15.15
2024-01-22T13:18:48.578Z,19.48
2024-01-22T13:21:19.710Z,13.93
2024-01-22T13:23:49.464Z,18.38
2024-01-22T13:26:17.615Z,20.13
2024-01-22T13:28:44.679Z,19.10
2024-01-22T13:31:13.570Z,13.30
2024-01-22T13:33:45.181Z,14.02
2024-01-22T13:36:17.661Z,17.05
2024-01-22T13:38:44.855Z,19.55
2024-01-22T13:41:16.439Z,13.80
2024-01-22T13:43:44.211Z,15.73
2024-01-22T13:46:14.284Z,21.38
2024-01-22T13:48:45.714Z,15.45
2024-01-22T13:51:16.107Z,15.30
2024-01-22T13:53:45.893Z,15.23
2024-01-22T13:56:15.023Z,11.77
2024-01-22T13:58:44.788Z,17.25
2024-01-22T14:01:12.759Z,15.27
2024-01-22T14:03:39.977Z,12.57
2024-01-22T14:06:10.592Z,9.25
2024-01-22T14:08:37.775Z,17.35
2024-01-22T14:11:07.733Z,21.80
2024-01-22T14:13:37.287Z,9.00
2024-01-22T14:16:04.481Z,24.60
2024-01-22T14:18:33.766Z,10.75
2024-01-22T14:21:10.986Z,16.70
2024-01-22T14:23:38.409Z,13.85
2024-01-22T14:26:06.784Z,11.32
2024-01-22T14:31:02.463Z,8.80
2024-01-22T14:33:29.653Z,15.43
2024-01-22T14:35:56.877Z,8.95
2024-01-22T14:38:29.667Z,17.08
2024-01-22T14:41:00.968Z,9.68
2024-01-22T14:43:32.090Z,16.80
2024-01-22T14:46:00.471Z,16.10
2024-01-22T14:48:32.592Z,11.65
2024-01-22T14:51:06.506Z,21.42
2024-01-22T14:53:33.968Z,8.32
2024-01-22T14:56:02.819Z,11.20
2024-01-22T14:58:32.505Z,18.15
2024-01-22T15:01:02.370Z,16.17
2024-01-22T15:03:29.589Z,13.43
2024-01-22T15:05:57.245Z,17.20
2024-01-22T15:08:25.356Z,16.63
2024-01-22T15:10:52.382Z,8.93
2024-01-22T15:13:19.253Z,16.00
2024-01-22T15:15:46.409Z,11.88
2024-01-22T15:18:13.774Z,9.65
2024-01-22T15:20:41.657Z,17.90
2024-01-22T15:23:08.613Z,17.40
2024-01-22T15:25:37.293Z,18.33
2024-01-22T15:28:05.002Z,16.90
2024-01-22T15:30:32.432Z,18.70
2024-01-22T15:33:02.131Z,11.35
2024-01-22T15:35:35.749Z,13.73
2024-01-22T15:38:04.211Z,14.13
2024-01-22T15:40:31.863Z,14.13
2024-01-22T15:43:01.639Z,11.27
2024-01-22T15:45:29.096Z,10.77
2024-01-22T15:47:56.327Z,14.75
2024-01-22T15:50:27.389Z,16.10
2024-01-22T15:52:57.495Z,14.02
2024-01-22T15:55:24.754Z,23.65
2024-01-22T15:57:51.458Z,14.45
2024-01-22T16:00:19.108Z,17.08
2024-01-22T16:02:45.851Z,10.07
2024-01-22T16:05:13.013Z,11.20
2024-01-22T16:07:41.007Z,19.52
2024-01-22T16:10:09.054Z,20.10
2024-01-22T16:12:35.927Z,14.27
2024-01-22T16:15:03.907Z,20.40
2024-01-22T16:17:34.659Z,15.88
2024-01-22T16:20:02.290Z,10.23
2024-01-22T16:22:29.946Z,17.33
2024-01-22T16:24:58.972Z,16.05
2024-01-22T16:29:54.050Z,16.20
2024-01-22T16:32:21.128Z,15.50
2024-01-22T16:34:48.452Z,16.33
2024-01-22T16:37:19.349Z,10.88
2024-01-22T16:39:47.945Z,9.65
2024-01-22T16:42:16.482Z,11.68
2024-01-22T16:44:44.209Z,11.60
2024-01-22T16:47:11.050Z,12.68
2024-01-22T16:49:38.176Z,17.65
2024-01-22T16:52:07.389Z,14.77
2024-01-22T16:54:34.600Z,10.30
2024-01-22T16:57:02.830Z,9.25
2024-01-22T16:59:31.320Z,12.50
2024-01-22T17:01:58.463Z,9.82
2024-01-22T17:04:28.318Z,18.23
2024-01-22T17:07:09.590Z,5.75
2024-01-22T17:09:39.444Z,5.60
2024-01-22T17:12:09.806Z,13.65
2024-01-22T17:17:07.519Z,12.45
2024-01-22T17:19:34.511Z,11.63
2024-01-22T17:22:02.206Z,8.57
2024-01-22T17:24:29.347Z,19.70
2024-01-22T17:26:56.852Z,14.10
2024-01-22T17:29:23.735Z,13.98
2024-01-22T17:31:50.739Z,10.85
2024-01-22T17:34:18.027Z,14.18
2024-01-22T17:36:44.867Z,16.02
2024-01-22T17:39:12.453Z,13.30
2024-01-22T17:41:40.087Z,18.73
2024-01-22T17:44:08.335Z,13.13
2024-01-22T17:46:35.741Z,10.40
2024-01-22T17:49:02.699Z,12.40
2024-01-22T17:51:29.679Z,6.10
2024-01-22T17:53:56.560Z,15.65
2024-01-22T17:56:23.969Z,15.98
2024-01-22T17:58:50.835Z,16.90
2024-01-22T18:01:18.694Z,13.85
2024-01-22T18:03:46.569Z,13.27
2024-01-22T18:06:20.645Z,17.48
2024-01-22T18:08:47.965Z,12.77
2024-01-22T18:11:18.828Z,10.75
2024-01-22T18:13:46.200Z,14.80
2024-01-22T18:16:14.125Z,10.82
2024-01-22T18:18:41.347Z,20.05
2024-01-22T18:21:09.061Z,12.60
2024-01-22T18:23:36.746Z,12.27
2024-01-22T18:26:07.209Z,11.27
2024-01-22T18:28:35.428Z,12.80
2024-01-22T18:31:02.953Z,17.58
2024-01-22T18:33:30.199Z,10.43
2024-01-22T18:35:59.084Z,11.07
2024-01-22T18:38:26.662Z,14.07
2024-01-22T18:40:54.039Z,11.80
2024-01-22T18:43:21.957Z,12.00
2024-01-22T18:45:49.060Z,9.27
2024-01-22T18:48:15.956Z,7.70
2024-01-22T18:50:42.919Z,8.43
2024-01-22T18:53:10.063Z,8.02
2024-01-22T18:55:40.431Z,13.30
2024-01-22T18:58:07.735Z,12.43
2024-01-22T19:00:35.722Z,17.60
2024-01-22T19:03:02.585Z,9.43
2024-01-22T19:05:29.684Z,10.38
2024-01-22T19:08:20.999Z,7.97
2024-01-22T19:11:06.872Z,7.72
2024-01-22T19:13:33.894Z,6.68
2024-01-22T19:16:00.914Z,11.55
2024-01-22T19:18:28.279Z,7.38
2024-01-22T19:20:55.296Z,10.52
2024-01-22T19:23:22.301Z,6.45
2024-01-22T19:25:49.352Z,11.95
2024-01-22T19:28:15.917Z,12.30
2024-01-22T19:30:43.856Z,8.07
2024-01-22T19:33:11.210Z,8.48
2024-01-22T19:35:38.266Z,10.00
2024-01-22T19:38:04.915Z,10.90
2024-01-22T19:40:33.168Z,3.00
2024-01-22T19:43:00.542Z,7.10
2024-01-22T19:45:27.406Z,19.73
2024-01-22T19:47:56.994Z,11.05
2024-01-22T19:50:23.791Z,15.32
2024-01-22T19:52:51.451Z,9.23
2024-01-22T19:55:18.485Z,10.77
2024-01-22T19:57:45.242Z,11.55
2024-01-22T20:00:13.580Z,8.07
2024-01-22T20:02:41.319Z,11.55
2024-01-22T20:05:08.668Z,7.60
2024-01-22T20:07:35.624Z,14.05
2024-01-22T20:10:02.760Z,11.35
2024-01-22T20:12:31.148Z,5.75
2024-01-22T20:17:25.475Z,3.25
2024-01-22T20:19:52.269Z,10.15
2024-01-22T20:22:18.960Z,4.45
2024-01-22T20:24:45.571Z,13.50
2024-01-22T20:27:12.253Z,10.82
2024-01-22T20:29:40.616Z,7.88
2024-01-22T20:34:36.586Z,8.55
2024-01-22T20:37:04.837Z,8.10
2024-01-22T20:39:32.619Z,7.95
2024-01-22T20:42:00.093Z,3.35
2024-01-22T20:44:27.167Z,6.70
2024-01-22T20:46:54.608Z,8.80
2024-01-22T20:49:22.872Z,3.08
2024-01-22T20:51:51.145Z,3.95
2024-01-22T20:54:18.523Z,3.20
2024-01-22T20:56:47.657Z,3.35
2024-01-22T20:59:15.093Z,4.78
2024-01-22T21:01:47.777Z,5.30
2024-01-22T21:04:15.708Z,5.22
2024-01-22T21:06:44.038Z,3.50
2024-01-22T21:09:16.069Z,2.20
2024-01-22T21:11:45.595Z,2.97
2024-01-22T21:14:13.772Z,4.95
2024-01-22T21:16:41.919Z,5.00
2024-01-22T21:19:09.040Z,5.53
2024-01-22T21:21:47.561Z,2.22
2024-01-22T21:24:15.414Z,10.18
2024-01-22T21:26:47.511Z,8.70
2024-01-22T21:29:14.954Z,6.22
2024-01-22T21:31:42.726Z,13.02
2024-01-22T21:34:11.084Z,12.35
2024-01-22T21:36:41.593Z,15.43
2024-01-22T21:39:09.748Z,10.43
2024-01-22T21:41:37.463Z,8.48
2024-01-22T21:44:04.621Z,4.72
2024-01-22T21:46:33.453Z,13.10
2024-01-22T21:49:01.141Z,14.15
2024-01-22T21:51:29.340Z,12.63
2024-01-22T21:53:56.600Z,9.70
2024-01-22T21:56:24.071Z,9.27
2024-01-22T21:58:51.146Z,21.02
2024-01-22T22:01:21.484Z,11.80
2024-01-22T22:03:48.837Z,12.93
2024-01-22T22:06:17.045Z,15.30
2024-01-22T22:08:45.715Z,16.70
2024-01-22T22:11:13.600Z,11.05
2024-01-22T22:13:40.613Z,9.48
2024-01-22T22:16:10.195Z,16.88
2024-01-22T22:18:37.635Z,15.95
2024-01-22T22:21:06.900Z,13.23
2024-01-22T22:23:37.412Z,8.80
2024-01-22T22:26:05.342Z,16.02
2024-01-22T22:28:32.101Z,19.05
2024-01-22T22:31:00.383Z,16.15
2024-01-22T22:33:27.899Z,7.75
2024-01-22T22:35:54.949Z,14.05
2024-01-22T22:38:25.218Z,15.40
2024-01-22T22:40:52.360Z,9.40
2024-01-22T22:43:22.136Z,8.13
2024-01-22T22:45:49.870Z,10.27
2024-01-22T22:48:16.891Z,12.35
2024-01-22T22:50:44.146Z,11.05
2024-01-22T22:53:11.172Z,7.30
2024-01-22T22:55:38.629Z,7.30
2024-01-22T22:58:05.488Z,7.70
2024-01-22T23:00:32.849Z,4.18
2024-01-22T23:02:59.837Z,4.38
2024-01-22T23:05:26.834Z,9.57
2024-01-22T23:07:53.772Z,6.43
2024-01-22T23:10:22.154Z,12.07
2024-01-22T23:12:48.799Z,6.90
2024-01-22T23:15:16.088Z,13.82
2024-01-22T23:17:44.766Z,8.43
2024-01-22T23:20:14.569Z,11.98
2024-01-22T23:22:41.796Z,13.82
2024-01-22T23:25:09.093Z,14.65
2024-01-22T23:27:36.508Z,9.80
2024-01-22T23:30:06.033Z,10.38
2024-01-22T23:32:37.648Z,12.38
2024-01-22T23:35:04.995Z,15.55
2024-01-22T23:37:32.201Z,12.63
2024-01-22T23:40:00.543Z,8.95
2024-01-22T23:42:27.436Z,8.13
2024-01-22T23:44:54.916Z,17.55
2024-01-22T23:47:26.166Z,16.10
2024-01-22T23:49:53.043Z,8.75
2024-01-22T23:52:19.810Z,17.67
2024-01-22T23:54:46.687Z,20.35
2024-01-22T23:57:14.428Z,22.90
2024-01-22T23:59:44.743Z,6.30
